Time;durP1;ratioP1;P1;durP2;ratioP2;P2;SDS_P1;SDS_P2;PMS_P1;PMS_P2;Temp;Humidity;BMP_temperature;BMP_pressure;BME280_temperature;BME280_humidity;BME280_pressure;Samples;Min_cycle;Max_cycle;Signal;HPM_P1;HPM_P2
2021/06/02 00:00:23;;;;;;;5.57;3.53;;;;;;;9.98;90.48;96116.63;5040880;28;20205;-71
2021/06/02 00:02:54;;;;;;;7.77;3.40;;;;;;;9.93;89.48;96118.91;5040682;28;20228;-71
2021/06/02 00:05:21;;;;;;;5.23;3.07;;;;;;;9.88;91.14;96115.19;5039555;28;20201;-72
2021/06/02 00:07:49;;;;;;;9.00;3.10;;;;;;;9.86;91.20;96112.72;5040909;28;20216;-72
2021/06/02 00:10:18;;;;;;;5.97;3.17;;;;;;;9.80;89.74;96105.53;5040288;28;20201;-71
2021/06/02 00:12:44;;;;;;;6.47;3.40;;;;;;;9.71;89.91;96111.84;5040245;28;20225;-71
2021/06/02 00:15:12;;;;;;;6.53;2.70;;;;;;;9.79;90.34;96109.16;5039750;28;20258;-71
2021/06/02 00:17:38;;;;;;;3.83;2.67;;;;;;;9.69;90.26;96108.56;5039636;28;20201;-70
2021/06/02 00:20:05;;;;;;;4.87;3.10;;;;;;;9.62;91.43;96109.41;5039512;28;20213;-70
2021/06/02 00:22:32;;;;;;;4.27;2.80;;;;;;;9.50;91.21;96102.13;5040403;28;20225;-71
2021/06/02 00:24:59;;;;;;;7.97;3.10;;;;;;;9.51;91.96;96087.94;5037069;28;20588;-71
2021/06/02 00:27:26;;;;;;;5.33;3.33;;;;;;;9.50;93.56;96091.59;5039858;28;20211;-71
2021/06/02 00:29:52;;;;;;;3.83;3.07;;;;;;;9.44;91.29;96093.09;5041780;28;20205;-71
2021/06/02 00:32:20;;;;;;;3.93;2.63;;;;;;;9.10;90.40;96089.19;5040288;28;20717;-71
2021/06/02 00:34:48;;;;;;;4.20;3.13;;;;;;;9.18;90.92;96091.78;5039658;28;20209;-71
2021/06/02 00:37:14;;;;;;;5.77;3.53;;;;;;;9.32;93.15;96088.41;5039403;28;20201;-72
2021/06/02 00:39:46;;;;;;;5.57;3.23;;;;;;;9.29;92.61;96091.38;5040744;28;20205;-72
2021/06/02 00:42:13;;;;;;;5.20;3.53;;;;;;;9.25;94.30;96082.19;5040098;28;20228;-72
2021/06/02 00:44:40;;;;;;;5.20;3.50;;;;;;;9.20;95.72;96095.03;5039490;28;20229;-71
2021/06/02 00:47:06;;;;;;;6.70;4.00;;;;;;;9.16;96.43;96093.75;5040055;28;20201;-71
2021/06/02 00:49:32;;;;;;;5.20;3.57;;;;;;;9.24;94.29;96089.28;5039758;28;20198;-72
2021/06/02 00:52:01;;;;;;;6.43;3.30;;;;;;;9.17;92.76;96095.41;5039241;28;20678;-72
2021/06/02 00:54:30;;;;;;;5.80;3.83;;;;;;;9.25;93.41;96093.56;5040062;28;20223;-71
2021/06/02 00:57:02;;;;;;;4.60;3.50;;;;;;;9.28;93.88;96092.41;5038879;28;20421;-72
2021/06/02 00:59:34;;;;;;;7.53;3.30;;;;;;;9.32;93.16;96093.69;5039971;28;20247;-72
2021/06/02 01:02:01;;;;;;;4.60;3.17;;;;;;;9.25;92.18;96093.56;5039213;28;20574;-71
2021/06/02 01:04:28;;;;;;;5.03;2.83;;;;;;;9.30;91.28;96093.81;5038887;28;20235;-71
2021/06/02 01:06:55;;;;;;;5.60;3.83;;;;;;;9.31;93.05;96097.28;5038365;28;20216;-71
2021/06/02 01:09:23;;;;;;;6.23;3.43;;;;;;;9.18;95.93;96092.59;5039246;28;20224;-71
2021/06/02 01:11:50;;;;;;;8.70;3.90;;;;;;;9.22;95.86;96098.31;5040097;28;20205;-71
2021/06/02 01:14:17;;;;;;;7.07;3.80;;;;;;;9.23;94.42;96100.78;5038737;28;20197;-71
2021/06/02 01:16:45;;;;;;;7.23;3.30;;;;;;;9.04;91.03;96105.63;5038559;28;20215;-71
2021/06/02 01:19:12;;;;;;;7.43;3.73;;;;;;;9.07;93.05;96107.09;5039524;28;20232;-71
2021/06/02 01:21:50;;;;;;;6.83;3.50;;;;;;;9.07;93.58;96109.75;5039228;28;20208;-71
2021/06/02 01:24:16;;;;;;;6.80;3.97;;;;;;;9.05;93.68;96104.66;5035324;28;21089;-72
2021/06/02 01:26:42;;;;;;;4.73;3.70;;;;;;;9.17;93.45;96108.53;5039729;28;20205;-71
2021/06/02 01:29:09;;;;;;;6.43;3.47;;;;;;;9.10;91.83;96115.47;5039006;28;20206;-71
2021/06/02 01:32:01;;;;;;;6.93;3.23;;;;;;;9.06;90.21;96119.41;5038535;28;20216;-71
2021/06/02 01:34:44;;;;;;;5.33;3.70;;;;;;;9.06;92.17;96110.72;5039383;28;20209;-72
2021/06/02 01:37:35;;;;;;;4.40;3.13;;;;;;;8.87;91.21;96101.44;5037708;28;20235;-71
2021/06/02 01:40:15;;;;;;;4.80;3.30;;;;;;;8.65;90.44;96099.53;5038083;28;20209;-71
2021/06/02 01:42:55;;;;;;;4.30;3.10;;;;;;;8.71;92.55;96104.09;5038968;28;20225;-71
2021/06/02 01:45:51;;;;;;;5.53;3.90;;;;;;;8.66;94.03;96106.41;5037387;28;20201;-72
2021/06/02 01:48:33;;;;;;;8.47;4.07;;;;;;;8.75;95.66;96105.41;5039464;28;20212;-70
2021/06/02 01:51:41;;;;;;;5.27;3.50;;;;;;;8.50;89.97;96116.97;5038637;28;20274;-71
2021/06/02 01:54:43;;;;;;;6.40;3.40;;;;;;;8.49;92.09;96109.28;5038133;28;20236;-71
2021/06/02 01:57:38;;;;;;;6.23;3.87;;;;;;;8.56;95.15;96118.09;5038893;28;20209;-71
2021/06/02 02:00:34;;;;;;;10.20;4.20;;;;;;;8.59;94.90;96123.00;5038102;28;20209;-72
2021/06/02 02:03:37;;;;;;;4.77;3.40;;;;;;;8.31;92.42;96126.19;5038383;28;20225;-71
2021/06/02 02:06:49;;;;;;;6.37;3.97;;;;;;;8.26;95.13;96124.06;5037681;28;20220;-71
2021/06/02 02:09:25;;;;;;;6.93;3.80;;;;;;;8.30;95.75;96120.13;5039036;28;20654;-72
2021/06/02 02:11:51;;;;;;;9.13;4.20;;;;;;;8.37;95.49;96125.53;5038884;28;20205;-71
2021/06/02 02:14:45;;;;;;;6.50;3.87;;;;;;;8.24;95.04;96125.22;5034303;28;20209;-71
2021/06/02 02:17:46;;;;;;;6.07;3.73;;;;;;;8.22;93.76;96117.53;5038370;28;20205;-71
2021/06/02 02:20:17;;;;;;;5.10;3.67;;;;;;;8.22;93.51;96117.53;5037677;28;20485;-71
2021/06/02 02:23:15;;;;;;;5.27;3.77;;;;;;;8.05;95.58;96120.28;5039429;28;20229;-71
2021/06/02 02:25:53;;;;;;;6.10;3.77;;;;;;;8.14;95.59;96119.31;5012250;28;20679;-72
2021/06/02 02:28:34;;;;;;;5.87;3.77;;;;;;;8.00;93.94;96117.31;5038805;28;20201;-73
2021/06/02 02:31:10;;;;;;;6.20;3.57;;;;;;;8.10;93.08;96116.16;5041159;28;20203;-73
2021/06/02 02:33:48;;;;;;;5.10;3.60;;;;;;;8.10;93.13;96117.97;5040878;28;20283;-74
2021/06/02 02:36:22;;;;;;;5.33;3.60;;;;;;;8.14;93.31;96125.38;5040002;28;20766;-74
2021/06/02 02:39:01;;;;;;;6.47;3.73;;;;;;;8.00;92.21;96127.81;5041250;28;20593;-74
2021/06/02 02:41:46;;;;;;;5.20;3.50;;;;;;;7.78;92.44;96132.88;5041710;28;20211;-73
2021/06/02 02:44:32;;;;;;;6.87;4.13;;;;;;;7.86;94.93;96136.34;5040482;28;20738;-74
2021/06/02 02:47:08;;;;;;;8.60;4.83;;;;;;;7.95;100.00;96137.97;5039947;28;20209;-74
2021/06/02 02:49:43;;;;;;;8.33;5.50;;;;;;;8.01;100.00;96132.09;5040826;28;20200;-73
2021/06/02 02:52:17;;;;;;;7.67;4.97;;;;;;;8.07;100.00;96136.66;5040360;28;20224;-74
2021/06/02 02:54:51;;;;;;;8.53;4.67;;;;;;;8.12;96.91;96134.38;5040061;28;20205;-74
2021/06/02 02:57:33;;;;;;;9.20;4.60;;;;;;;8.16;96.79;96146.19;5040238;28;20262;-74
2021/06/02 03:00:05;;;;;;;5.47;4.20;;;;;;;8.23;95.31;96145.38;5040619;28;20633;-73
2021/06/02 03:02:40;;;;;;;7.50;4.33;;;;;;;8.25;96.16;96135.56;5044212;28;20294;-75
2021/06/02 03:05:12;;;;;;;9.13;4.50;;;;;;;8.12;97.92;96137.00;5044651;28;20227;-73
2021/06/02 03:07:44;;;;;;;8.07;4.23;;;;;;;8.07;95.81;96144.53;5045644;28;20299;-74
2021/06/02 03:10:14;;;;;;;10.57;4.37;;;;;;;8.04;94.19;96148.34;5044810;28;21177;-74
2021/06/02 03:12:51;;;;;;;8.10;4.53;;;;;;;8.06;96.58;96154.22;5045003;28;20302;-75
2021/06/02 03:15:42;;;;;;;7.03;4.33;;;;;;;8.07;97.93;96144.53;5043152;28;20667;-74
2021/06/02 03:18:18;;;;;;;9.87;4.63;;;;;;;8.11;96.89;96145.88;5040909;28;20213;-73
2021/06/02 03:20:51;;;;;;;6.90;4.57;;;;;;;8.10;97.87;96145.03;5044850;28;20797;-73
2021/06/02 03:23:41;;;;;;;8.40;4.70;;;;;;;8.16;97.10;96151.44;5045753;28;20784;-74
2021/06/02 03:26:11;;;;;;;6.97;4.50;;;;;;;8.14;97.21;96156.06;5042093;28;20216;-74
2021/06/02 03:28:52;;;;;;;6.63;4.80;;;;;;;8.12;97.93;96157.97;5045886;28;20209;-74
2021/06/02 03:31:28;;;;;;;6.07;4.03;;;;;;;7.95;96.39;96161.59;5044951;28;20211;-73
2021/06/02 03:34:13;;;;;;;11.70;4.50;;;;;;;7.86;95.59;96154.69;5043507;28;20224;-73
2021/06/02 03:36:48;;;;;;;6.47;4.30;;;;;;;7.90;95.69;96163.88;5044245;28;20246;-73
2021/06/02 03:39:22;;;;;;;6.83;4.53;;;;;;;7.88;97.03;96158.00;5043766;28;20608;-73
2021/06/02 03:41:57;;;;;;;8.57;4.93;;;;;;;7.86;96.68;96161.75;5044583;28;20211;-75
2021/06/02 03:44:41;;;;;;;10.70;4.50;;;;;;;7.89;96.61;96164.84;5044546;28;20709;-73
2021/06/02 03:47:21;;;;;;;7.40;4.60;;;;;;;7.90;96.84;96158.63;5043717;28;20209;-74
2021/06/02 03:49:55;;;;;;;7.60;4.30;;;;;;;7.98;97.23;96169.13;5043625;28;20205;-74
2021/06/02 03:52:36;;;;;;;8.93;4.83;;;;;;;7.75;98.10;96164.69;5044174;28;20221;-74
2021/06/02 03:55:08;;;;;;;8.27;4.67;;;;;;;7.84;98.26;96167.16;5043323;28;20211;-75
2021/06/02 03:57:36;;;;;;;8.20;5.00;;;;;;;7.85;98.36;96174.03;5043478;28;20240;-75
2021/06/02 04:00:11;;;;;;;9.70;5.07;;;;;;;7.98;99.94;96169.13;5043428;28;20254;-74
2021/06/02 04:02:46;;;;;;;6.17;4.20;;;;;;;8.07;97.37;96170.78;5042713;28;20259;-73
2021/06/02 04:05:19;;;;;;;11.43;5.00;;;;;;;8.14;98.06;96169.19;5042548;28;20332;-74
2021/06/02 04:07:57;;;;;;;7.83;5.13;;;;;;;8.25;98.73;96169.69;5044279;28;20675;-73
2021/06/02 04:10:36;;;;;;;8.47;5.33;;;;;;;8.25;98.36;96174.09;5042980;28;20296;-73
2021/06/02 04:13:08;;;;;;;9.00;5.53;;;;;;;8.33;98.60;96174.91;5042535;28;20231;-74
2021/06/02 04:15:37;;;;;;;8.27;5.20;;;;;;;8.37;99.30;96176.22;5043101;28;20205;-73
2021/06/02 04:18:06;;;;;;;9.60;5.07;;;;;;;8.43;98.91;96172.94;5043583;28;20262;-73
2021/06/02 04:20:33;;;;;;;8.60;4.70;;;;;;;8.46;98.51;96174.44;5043347;28;20713;-73
2021/06/02 04:23:03;;;;;;;10.00;5.40;;;;;;;8.50;99.42;96174.75;5043609;28;20274;-74
2021/06/02 04:25:30;;;;;;;8.57;5.87;;;;;;;8.39;100.00;96176.88;5040874;28;20229;-75
2021/06/02 04:27:57;;;;;;;9.83;6.17;;;;;;;8.35;100.00;96174.75;5042766;28;20204;-72
2021/06/02 04:30:25;;;;;;;10.43;5.37;;;;;;;8.56;100.00;96181.94;5043147;28;20209;-71
2021/06/02 04:32:59;;;;;;;11.17;6.40;;;;;;;8.80;100.00;96184.53;5041693;28;20232;-72
2021/06/02 04:35:26;;;;;;;9.93;6.23;;;;;;;8.99;100.00;96178.91;5039522;28;20576;-71
2021/06/02 04:37:52;;;;;;;10.03;5.97;;;;;;;8.99;100.00;96183.38;5041811;28;20205;-73
2021/06/02 04:40:18;;;;;;;11.23;6.13;;;;;;;8.92;100.00;96185.00;5041601;28;20254;-72
2021/06/02 04:42:44;;;;;;;8.50;6.10;;;;;;;9.11;100.00;96182.81;5041734;28;20257;-73
2021/06/02 04:45:16;;;;;;;8.80;5.97;;;;;;;9.24;100.00;96185.72;5040827;28;20236;-72
2021/06/02 04:47:44;;;;;;;11.20;6.67;;;;;;;9.38;100.00;96182.38;5041177;28;20208;-72
2021/06/02 04:50:20;;;;;;;16.37;6.60;;;;;;;9.62;100.00;96185.72;5041617;28;20666;-72
2021/06/02 04:53:32;;;;;;;10.03;6.70;;;;;;;9.65;100.00;96189.81;5040408;28;20239;-72
2021/06/02 04:56:34;;;;;;;14.30;6.23;;;;;;;9.76;100.00;96198.13;5040315;28;20205;-72
2021/06/02 04:59:23;;;;;;;12.03;6.63;;;;;;;10.00;100.00;96198.84;5039748;28;20205;-72
2021/06/02 05:02:34;;;;;;;15.63;6.83;;;;;;;10.18;100.00;96199.38;5039658;28;20205;-72
2021/06/02 05:05:17;;;;;;;11.07;6.83;;;;;;;10.39;100.00;96199.56;4992829;28;20229;-73
2021/06/02 05:08:17;;;;;;;12.13;7.00;;;;;;;10.60;100.00;96202.34;5042031;28;20220;-73
2021/06/02 05:11:19;;;;;;;15.27;7.13;;;;;;;10.77;99.98;96199.41;5040086;28;20212;-73
2021/06/02 05:14:23;;;;;;;11.30;7.23;;;;;;;11.02;97.38;96201.63;5021226;28;20690;-72
2021/06/02 05:17:23;;;;;;;12.47;7.20;;;;;;;11.15;98.92;96204.44;5039506;28;20204;-72
2021/06/02 05:22:04;;;;;;;12.77;7.47;;;;;;;11.28;99.94;96201.19;5040912;28;20740;-72
2021/06/02 05:23:59;;;;;;;14.40;7.10;;;;;;;11.45;99.38;96198.16;5037884;28;20747;-72
2021/06/02 05:27:18;;;;;;;13.30;7.03;;;;;;;11.59;100.00;96195.53;5039232;28;20209;-72
2021/06/02 05:30:16;;;;;;;14.13;7.67;;;;;;;11.73;98.94;96207.88;5040796;28;20213;-72
2021/06/02 05:33:20;;;;;;;11.55;7.13;;;;;;;11.84;97.92;96203.97;5040668;28;20248;-73
2021/06/02 05:36:23;;;;;;;11.67;7.37;;;;;;;12.11;94.05;96206.72;5038492;28;20201;-72
2021/06/02 05:39:11;;;;;;;10.57;7.37;;;;;;;12.19;96.15;96207.44;5037195;28;20205;-73
2021/06/02 05:41:56;;;;;;;10.70;7.23;;;;;;;12.29;96.39;96213.19;5039135;28;20201;-73
2021/06/02 05:45:03;;;;;;;12.77;7.55;;;;;;;12.27;97.56;96217.88;5039812;28;20232;-73
2021/06/02 05:47:58;;;;;;;12.83;7.30;;;;;;;12.42;96.93;96216.00;5038915;28;20205;-73
2021/06/02 05:51:08;;;;;;;12.03;7.67;;;;;;;12.56;95.80;96212.44;5039254;28;20216;-73
2021/06/02 05:54:03;;;;;;;11.10;7.15;;;;;;;12.68;95.33;96208.31;5038877;28;20714;-72
2021/06/02 05:57:05;;;;;;;10.80;6.90;;;;;;;12.84;95.75;96215.94;5037996;28;20241;-72
2021/06/02 06:00:04;;;;;;;10.75;6.93;;;;;;;12.99;95.66;96214.88;5022772;28;20209;-73
2021/06/02 06:03:07;;;;;;;10.52;6.90;;;;;;;13.16;94.34;96212.75;5036894;28;20229;-73
2021/06/02 06:05:49;;;;;;;12.88;6.53;;;;;;;13.20;96.10;96208.72;5038611;28;20224;-72
2021/06/02 06:09:12;;;;;;;10.70;6.57;;;;;;;13.35;94.64;96214.72;5038875;28;20311;-73
2021/06/02 06:12:28;;;;;;;10.35;6.80;;;;;;;13.47;90.37;96208.72;5038528;28;20202;-73
2021/06/02 06:15:26;;;;;;;9.45;5.95;;;;;;;13.62;89.36;96202.28;5038007;28;20221;-73
2021/06/02 06:18:11;;;;;;;9.18;6.40;;;;;;;13.74;87.35;96202.53;5039419;28;20205;-73
2021/06/02 06:21:10;;;;;;;10.98;6.72;;;;;;;13.83;86.11;96204.78;5038601;28;20209;-73
2021/06/02 06:23:53;;;;;;;11.50;6.03;;;;;;;14.05;83.07;96208.97;5038252;28;20357;-73
2021/06/02 06:26:25;;;;;;;8.82;5.50;;;;;;;14.13;80.58;96208.84;5035280;28;20207;-73
2021/06/02 06:28:56;;;;;;;11.95;5.75;;;;;;;14.18;82.02;96211.72;5039872;28;20208;-73
2021/06/02 06:31:28;;;;;;;10.90;5.40;;;;;;;14.28;81.64;96210.31;5038900;28;20212;-75
2021/06/02 06:33:57;;;;;;;10.13;5.47;;;;;;;14.37;77.65;96211.75;5038906;28;20343;-72
2021/06/02 06:36:25;;;;;;;8.50;5.38;;;;;;;14.49;76.58;96212.78;5037382;28;20211;-73
2021/06/02 06:39:02;;;;;;;8.75;6.30;;;;;;;14.64;89.33;96211.59;5039473;28;20216;-72
2021/06/02 06:41:30;;;;;;;10.77;5.90;;;;;;;14.66;82.71;96209.56;5039050;28;20601;-75
2021/06/02 06:43:57;;;;;;;8.30;5.18;;;;;;;14.79;76.80;96214.03;5039350;28;20278;-74
2021/06/02 06:46:25;;;;;;;9.13;5.60;;;;;;;14.86;75.70;96215.69;5039304;28;20266;-73
2021/06/02 06:48:54;;;;;;;9.05;5.00;;;;;;;14.86;74.86;96218.34;5038516;28;20209;-73
2021/06/02 06:51:23;;;;;;;9.88;5.57;;;;;;;14.93;75.16;96219.16;5038416;28;20200;-72
2021/06/02 06:53:50;;;;;;;9.05;5.60;;;;;;;15.04;74.23;96218.53;5038976;28;20229;-73
2021/06/02 06:56:19;;;;;;;7.28;5.10;;;;;;;15.09;73.09;96221.41;5038931;28;21269;-74
2021/06/02 06:58:45;;;;;;;11.43;6.10;;;;;;;15.24;76.15;96223.88;5038858;28;20210;-73
2021/06/02 07:01:14;;;;;;;13.23;5.07;;;;;;;15.33;75.41;96218.94;5038741;28;20201;-75
2021/06/02 07:03:40;;;;;;;8.20;5.90;;;;;;;15.48;78.91;96221.41;5038818;28;20232;-73
2021/06/02 07:06:07;;;;;;;9.70;5.50;;;;;;;15.64;75.31;96221.75;5037877;28;20243;-73
2021/06/02 07:08:35;;;;;;;10.75;6.32;;;;;;;15.71;76.73;96219.09;5038223;28;20221;-74
2021/06/02 07:11:02;;;;;;;9.32;5.80;;;;;;;15.74;76.60;96222.13;5038633;28;20236;-74
2021/06/02 07:13:30;;;;;;;9.98;5.35;;;;;;;15.82;76.24;96218.44;5038767;28;20236;-74
2021/06/02 07:16:01;;;;;;;7.95;5.30;;;;;;;15.80;73.48;96213.34;5037370;28;20701;-75
2021/06/02 07:18:28;;;;;;;10.48;5.47;;;;;;;15.86;75.51;96215.97;5037879;28;20213;-73
2021/06/02 07:20:55;;;;;;;7.80;5.20;;;;;;;15.86;69.17;96212.50;5036169;28;20209;-73
2021/06/02 07:23:21;;;;;;;11.15;5.47;;;;;;;15.88;69.87;96216.59;5037497;28;20657;-74
2021/06/02 07:25:49;;;;;;;10.02;4.97;;;;;;;16.06;70.18;96215.91;5035157;28;20696;-73
2021/06/02 07:28:21;;;;;;;7.07;5.15;;;;;;;16.27;68.10;96218.31;5037356;28;20197;-73
2021/06/02 07:30:47;;;;;;;8.25;5.63;;;;;;;16.35;70.88;96216.19;5038234;28;20213;-73
2021/06/02 07:33:13;;;;;;;9.75;5.85;;;;;;;16.48;70.83;96218.78;5038690;28;20711;-73
2021/06/02 07:35:39;;;;;;;8.02;5.25;;;;;;;16.50;68.81;96219.41;5037289;28;20216;-73
2021/06/02 07:38:05;;;;;;;9.13;5.57;;;;;;;16.55;71.75;96211.59;5038901;28;20252;-73
2021/06/02 07:40:31;;;;;;;12.10;5.07;;;;;;;16.78;73.83;96214.50;5038441;28;20246;-75
2021/06/02 07:42:58;;;;;;;9.25;5.43;;;;;;;16.95;71.56;96220.94;5037377;28;20225;-73
2021/06/02 07:45:24;;;;;;;10.20;5.78;;;;;;;16.83;68.67;96225.34;5036628;28;20228;-73
2021/06/02 07:47:50;;;;;;;8.77;5.57;;;;;;;16.91;70.34;96230.38;5039753;28;20209;-75
2021/06/02 07:50:16;;;;;;;8.32;5.35;;;;;;;17.08;67.80;96229.63;5041362;28;20232;-73
2021/06/02 07:52:42;;;;;;;11.13;5.28;;;;;;;16.98;65.45;96233.81;5041159;28;20239;-74
2021/06/02 07:55:09;;;;;;;7.25;4.72;;;;;;;17.23;66.05;96225.63;5041873;28;20235;-75
2021/06/02 07:57:35;;;;;;;9.45;5.15;;;;;;;17.43;66.41;96228.94;5041412;28;20597;-73
2021/06/02 08:00:04;;;;;;;8.20;5.10;;;;;;;17.47;62.88;96216.81;5041378;28;20698;-73
2021/06/02 08:02:30;;;;;;;10.93;5.03;;;;;;;17.71;66.29;96215.16;5040531;28;20236;-73
2021/06/02 08:04:57;;;;;;;8.52;4.75;;;;;;;17.61;69.51;96226.31;5041299;28;20225;-74
2021/06/02 08:07:23;;;;;;;8.27;4.78;;;;;;;17.84;66.21;96215.81;5040116;28;20211;-75
2021/06/02 08:09:50;;;;;;;8.75;4.55;;;;;;;17.90;64.23;96222.94;5040369;28;20209;-74
2021/06/02 08:12:16;;;;;;;8.70;4.93;;;;;;;17.90;64.10;96225.59;5040871;28;20227;-75
2021/06/02 08:14:42;;;;;;;8.05;4.88;;;;;;;18.01;62.33;96228.34;5041737;28;20209;-72
2021/06/02 08:17:10;;;;;;;14.88;5.35;;;;;;;17.80;62.62;96235.97;5040296;28;20263;-74
2021/06/02 08:19:36;;;;;;;9.23;4.88;;;;;;;17.99;66.94;96229.59;5042134;28;20296;-76
2021/06/02 08:22:02;;;;;;;9.38;4.75;;;;;;;18.14;61.69;96232.69;5041473;28;20205;-74
2021/06/02 08:24:30;;;;;;;8.13;4.90;;;;;;;18.18;62.19;96236.59;5038234;28;20256;-74
2021/06/02 08:26:56;;;;;;;9.50;4.55;;;;;;;18.28;65.97;96247.53;5040959;28;20679;-75
2021/06/02 08:29:22;;;;;;;14.30;4.95;;;;;;;18.17;63.00;96248.25;5041570;28;20216;-75
2021/06/02 08:31:48;;;;;;;7.32;4.85;;;;;;;18.26;63.23;96237.09;5040403;28;20217;-74
2021/06/02 08:34:16;;;;;;;8.65;4.97;;;;;;;18.54;64.29;96243.47;5041053;28;20201;-73
2021/06/02 08:36:42;;;;;;;9.48;5.38;;;;;;;18.61;60.26;96232.72;5040588;28;20209;-74
2021/06/02 08:39:08;;;;;;;8.32;4.75;;;;;;;18.56;62.46;96236.06;5039657;28;20235;-75
2021/06/02 08:41:37;;;;;;;8.07;4.80;;;;;;;18.82;62.36;96246.38;5040410;28;20885;-74
2021/06/02 08:44:04;;;;;;;7.38;4.40;;;;;;;18.88;61.35;96245.47;5040825;28;20513;-76
2021/06/02 08:46:31;;;;;;;8.70;5.10;;;;;;;18.89;62.65;96244.44;5039295;28;20628;-73
2021/06/02 08:48:57;;;;;;;7.38;4.88;;;;;;;18.98;59.96;96249.22;5039767;28;20454;-74
2021/06/02 08:51:24;;;;;;;10.13;5.22;;;;;;;19.08;63.23;96251.34;5041368;28;20212;-75
2021/06/02 08:53:51;;;;;;;8.27;5.30;;;;;;;19.21;61.77;96237.81;5040436;28;20229;-73
2021/06/02 08:56:19;;;;;;;8.13;5.32;;;;;;;18.93;59.79;96238.41;5039664;28;20590;-75
2021/06/02 08:58:45;;;;;;;10.27;5.55;;;;;;;19.07;60.88;96245.22;5039747;28;20323;-74
2021/06/02 09:01:11;;;;;;;10.15;5.72;;;;;;;19.12;61.83;96237.31;5040537;28;20749;-73
2021/06/02 09:03:37;;;;;;;8.38;5.88;;;;;;;19.26;61.97;96240.63;5039816;28;20225;-74
2021/06/02 09:06:07;;;;;;;10.25;5.47;;;;;;;19.36;61.56;96240.84;5038865;28;20225;-73
2021/06/02 09:08:38;;;;;;;14.55;6.13;;;;;;;19.42;58.42;96239.94;5040254;28;20209;-75
2021/06/02 09:11:11;;;;;;;9.80;5.93;;;;;;;19.41;57.51;96233.78;5039901;28;20212;-73
2021/06/02 09:13:37;;;;;;;9.68;5.82;;;;;;;19.26;59.89;96241.41;5039805;28;20298;-73
2021/06/02 09:16:17;;;;;;;9.98;5.32;;;;;;;19.58;59.27;96240.84;5039751;28;20659;-76
2021/06/02 09:18:47;;;;;;;10.07;5.20;;;;;;;19.72;57.95;96247.59;5039402;28;20727;-75
2021/06/02 09:21:13;;;;;;;7.65;5.38;;;;;;;19.96;56.58;96243.06;5039954;28;20216;-75
2021/06/02 09:23:43;;;;;;;10.25;5.03;;;;;;;19.92;55.74;96242.75;5038913;28;20265;-76
2021/06/02 09:26:15;;;;;;;10.30;4.60;;;;;;;20.05;54.16;96250.53;5037333;28;20294;-76
2021/06/02 09:28:50;;;;;;;13.45;4.75;;;;;;;20.24;56.38;96241.31;5040376;28;20286;-73
2021/06/02 09:31:25;;;;;;;8.45;4.90;;;;;;;20.12;54.33;96239.69;5040146;28;20563;-73
2021/06/02 09:33:52;;;;;;;10.52;4.00;;;;;;;20.28;50.96;96242.47;5040095;28;20227;-73
2021/06/02 09:36:24;;;;;;;6.10;3.65;;;;;;;20.40;48.34;96246.75;5038373;28;20220;-75
2021/06/02 09:38:53;;;;;;;5.25;3.70;;;;;;;20.26;49.38;96245.38;5040090;28;20212;-75
2021/06/02 09:41:19;;;;;;;5.20;3.63;;;;;;;20.60;49.87;96236.41;5039258;28;20201;-74
2021/06/02 09:43:45;;;;;;;4.65;3.10;;;;;;;20.81;51.27;96243.81;5038308;28;20503;-76
2021/06/02 09:46:14;;;;;;;7.53;3.53;;;;;;;21.15;49.05;96243.63;5038828;28;20256;-74
2021/06/02 09:48:42;;;;;;;5.90;3.45;;;;;;;21.23;50.10;96240.56;5040113;28;20735;-74
2021/06/02 09:51:33;;;;;;;8.90;3.10;;;;;;;21.26;48.55;96229.34;5039463;28;20734;-75
2021/06/02 09:54:01;;;;;;;8.15;3.00;;;;;;;21.21;47.12;96247.22;5038371;28;20225;-74
2021/06/02 09:56:34;;;;;;;4.82;3.20;;;;;;;21.31;47.18;96237.50;5039857;28;20209;-75
2021/06/02 09:59:01;;;;;;;8.85;3.30;;;;;;;21.51;48.44;96243.19;5039903;28;20205;-76
2021/06/02 10:01:27;;;;;;;7.38;3.30;;;;;;;21.59;49.85;96246.28;5038640;28;20216;-73
2021/06/02 10:03:54;;;;;;;6.60;3.03;;;;;;;21.70;44.65;96244.56;5039799;28;20225;-74
2021/06/02 10:06:20;;;;;;;10.63;3.92;;;;;;;21.62;45.66;96247.66;5038646;28;20201;-75
2021/06/02 10:08:55;;;;;;;9.30;3.50;;;;;;;21.65;43.98;96247.16;5038513;28;20567;-75
2021/06/02 10:11:27;;;;;;;5.68;3.10;;;;;;;21.66;44.41;96248.81;5039815;28;20239;-73
2021/06/02 10:13:54;;;;;;;6.53;3.15;;;;;;;21.69;43.75;96243.78;5038627;28;20277;-74
2021/06/02 10:16:34;;;;;;;5.43;3.00;;;;;;;21.83;40.58;96250.41;5039696;28;20209;-75
2021/06/02 10:19:00;;;;;;;6.07;3.17;;;;;;;21.89;44.88;96243.25;5039778;28;20200;-75
2021/06/02 10:21:41;;;;;;;6.13;3.33;;;;;;;22.01;44.34;96246.63;5038889;28;20492;-74
2021/06/02 10:24:08;;;;;;;7.60;3.42;;;;;;;21.84;42.71;96240.50;5036507;28;20229;-75
2021/06/02 10:26:37;;;;;;;6.28;3.00;;;;;;;22.13;43.85;96240.94;5039371;28;20212;-74
2021/06/02 10:29:04;;;;;;;7.47;3.15;;;;;;;22.42;42.35;96244.28;5039197;28;20662;-73
2021/06/02 10:31:30;;;;;;;4.53;2.90;;;;;;;22.72;44.04;96242.75;5038308;28;20777;-74
2021/06/02 10:33:56;;;;;;;11.68;4.35;;;;;;;22.93;45.46;96240.03;5039132;28;20225;-73
2021/06/02 10:36:24;;;;;;;5.30;2.60;;;;;;;22.96;39.85;96244.94;5038854;28;21262;-74
2021/06/02 10:38:53;;;;;;;3.40;2.53;;;;;;;23.05;36.62;96242.59;5039399;28;20202;-73
2021/06/02 10:41:25;;;;;;;6.80;3.13;;;;;;;22.85;36.50;96245.88;5039258;28;20205;-74
2021/06/02 10:43:58;;;;;;;6.13;3.00;;;;;;;22.94;39.00;96244.34;5038308;28;20725;-72
2021/06/02 10:46:27;;;;;;;7.47;2.63;;;;;;;22.85;39.25;96245.88;5037443;28;20228;-70
2021/06/02 10:49:00;;;;;;;11.32;2.88;;;;;;;22.91;38.40;96249.41;5037066;28;20209;-72
2021/06/02 10:51:40;;;;;;;4.95;3.33;;;;;;;22.92;37.80;96245.66;5037987;28;20674;-72
2021/06/02 10:54:08;;;;;;;6.63;3.30;;;;;;;22.95;38.14;96250.53;5037133;28;20231;-71
2021/06/02 10:56:34;;;;;;;4.75;3.30;;;;;;;22.99;37.44;96244.44;5036548;28;20267;-71
2021/06/02 10:59:03;;;;;;;5.53;3.17;;;;;;;22.92;37.10;96234.91;5038763;28;20217;-72
2021/06/02 11:01:30;;;;;;;10.43;2.85;;;;;;;23.21;39.67;96239.00;5037857;28;20201;-71
2021/06/02 11:04:12;;;;;;;7.47;3.13;;;;;;;23.38;38.59;96238.63;5036745;28;20287;-71
2021/06/02 11:06:43;;;;;;;6.47;3.38;;;;;;;23.46;37.09;96230.09;5037461;28;20210;-71
2021/06/02 11:09:14;;;;;;;6.13;3.20;;;;;;;23.52;37.71;96225.56;5037487;28;20884;-71
2021/06/02 11:11:42;;;;;;;5.10;3.30;;;;;;;23.53;39.08;96229.88;5037673;28;21253;-71
2021/06/02 11:14:27;;;;;;;5.38;3.40;;;;;;;23.67;38.48;96229.16;5038440;28;20753;-72
2021/06/02 11:17:00;;;;;;;5.25;3.20;;;;;;;23.67;37.38;96225.69;5036486;28;20209;-72
2021/06/02 11:19:28;;;;;;;6.93;2.92;;;;;;;23.61;38.10;96230.22;5037456;28;20223;-72
2021/06/02 11:21:59;;;;;;;6.25;2.85;;;;;;;23.58;37.49;96228.03;5038882;28;20205;-72
2021/06/02 11:24:37;;;;;;;6.13;3.00;;;;;;;23.79;37.24;96221.78;5038877;28;20971;-71
2021/06/02 11:27:36;;;;;;;6.30;2.78;;;;;;;24.19;39.04;96222.81;5041720;28;20753;-72
2021/06/02 11:30:11;;;;;;;4.38;2.97;;;;;;;24.26;37.12;96230.66;5030397;28;20208;-71
2021/06/02 11:32:49;;;;;;;3.13;2.58;;;;;;;24.38;38.32;96232.09;5042399;28;20224;-72
2021/06/02 11:35:16;;;;;;;7.25;2.80;;;;;;;24.38;39.78;96237.50;5039897;28;20201;-72
2021/06/02 11:37:42;;;;;;;6.00;2.72;;;;;;;24.38;42.96;96236.66;5041417;28;20204;-72
2021/06/02 11:40:11;;;;;;;6.80;3.15;;;;;;;24.55;36.67;96238.09;5041724;28;20218;-71
2021/06/02 11:42:39;;;;;;;3.92;3.10;;;;;;;24.71;37.25;96231.69;5040196;28;20225;-72
2021/06/02 11:45:08;;;;;;;8.32;2.70;;;;;;;24.55;40.62;96231.91;5040438;28;20256;-71
2021/06/02 11:47:37;;;;;;;4.63;2.75;;;;;;;24.09;36.87;96232.72;5040772;28;20229;-72
2021/06/02 11:50:04;;;;;;;7.47;2.63;;;;;;;24.62;36.14;96228.69;5041563;28;20201;-72
2021/06/02 11:52:30;;;;;;;4.43;2.53;;;;;;;24.45;36.77;96231.84;5041832;28;20224;-72
2021/06/02 11:54:58;;;;;;;4.15;2.65;;;;;;;24.39;35.57;96235.59;5040964;28;20213;-72
2021/06/02 11:57:26;;;;;;;7.47;2.83;;;;;;;24.76;38.14;96231.72;5040030;28;20201;-71
2021/06/02 11:59:52;;;;;;;5.32;2.40;;;;;;;24.98;34.30;96233.13;5040800;28;20209;-72
2021/06/02 12:02:19;;;;;;;4.93;2.50;;;;;;;24.94;38.27;96233.94;5039449;28;20233;-72
2021/06/02 12:04:46;;;;;;;8.48;2.85;;;;;;;24.92;39.43;96227.97;5040588;28;20228;-72
2021/06/02 12:07:23;;;;;;;3.63;2.10;;;;;;;24.99;35.38;96232.03;5038699;28;20209;-72
2021/06/02 12:09:49;;;;;;;4.95;2.50;;;;;;;25.45;33.39;96236.47;5037010;28;20213;-72